Time;durP1;ratioP1;P1;durP2;ratioP2;P2;SDS_P1;SDS_P2;PMS_P1;PMS_P2;Temp;Humidity;BMP_temperature;BMP_pressure;BME280_temperature;BME280_humidity;BME280_pressure;Samples;Min_cycle;Max_cycle;Signal;HPM_P1;HPM_P2
2022/10/31 00:00:35;;;;;;;6.45;2.35;;;;;;;15.64;71.91;101447.09;5051679;28;20050;-80
2022/10/31 00:03:04;;;;;;;3.97;2.17;;;;;;;15.61;73.24;101436.63;5047330;28;20061;-74
2022/10/31 00:05:32;;;;;;;8.80;2.58;;;;;;;15.60;73.73;101447.91;5049614;28;20041;-74
2022/10/31 00:08:02;;;;;;;6.85;2.83;;;;;;;15.58;73.95;101441.78;5050116;28;20042;-74
2022/10/31 00:10:31;;;;;;;11.82;2.65;;;;;;;15.57;73.93;101445.22;5053388;28;20041;-74
2022/10/31 00:12:59;;;;;;;6.55;1.98;;;;;;;15.57;74.15;101437.41;5052610;28;20056;-73
2022/10/31 00:15:28;;;;;;;7.15;2.95;;;;;;;15.56;73.67;101422.59;5052798;28;20048;-74
2022/10/31 00:17:57;;;;;;;6.60;2.63;;;;;;;15.56;74.06;101422.59;5047952;28;20069;-74
2022/10/31 00:20:28;;;;;;;4.72;2.05;;;;;;;15.56;73.05;101419.13;5052380;28;20102;-73
2022/10/31 00:23:00;;;;;;;8.17;2.23;;;;;;;15.47;73.00;101407.66;5048372;28;20415;-74
2022/10/31 00:25:34;;;;;;;4.35;1.90;;;;;;;15.44;71.71;101407.59;5048844;28;20059;-72
2022/10/31 00:28:09;;;;;;;3.97;2.33;;;;;;;15.45;72.81;101398.03;5051728;28;20671;-72
2022/10/31 00:30:37;;;;;;;4.93;1.80;;;;;;;15.46;72.57;101403.28;5046229;28;20052;-73
2022/10/31 00:33:06;;;;;;;7.32;2.15;;;;;;;15.47;72.14;101397.22;5052294;28;20057;-72
2022/10/31 00:35:35;;;;;;;7.15;2.17;;;;;;;15.45;71.09;101393.69;5051976;28;20149;-72
2022/10/31 00:38:06;;;;;;;4.53;2.10;;;;;;;15.43;72.04;101395.41;5037656;28;20134;-74
2022/10/31 00:40:36;;;;;;;3.78;2.22;;;;;;;15.40;73.11;101386.66;5034742;28;20438;-73
2022/10/31 00:43:05;;;;;;;4.25;1.95;;;;;;;15.40;73.40;101381.44;5035669;28;20619;-73
2022/10/31 00:45:33;;;;;;;7.60;2.67;;;;;;;15.40;72.83;101373.59;5042783;28;20503;-74
2022/10/31 00:48:02;;;;;;;6.70;2.65;;;;;;;15.33;72.75;101362.19;5035608;28;20138;-74
2022/10/31 00:50:40;;;;;;;6.72;3.00;;;;;;;15.29;73.68;101363.84;5040983;28;20061;-74
2022/10/31 00:53:09;;;;;;;4.93;2.33;;;;;;;15.23;73.54;101355.91;5046369;28;20076;-73
2022/10/31 00:55:40;;;;;;;7.15;2.72;;;;;;;15.19;73.70;101354.09;5043022;28;20092;-73
2022/10/31 00:58:08;;;;;;;4.13;2.20;;;;;;;15.15;73.88;101361.81;5045313;28;20053;-74
2022/10/31 01:00:39;;;;;;;6.25;2.15;;;;;;;15.14;74.10;101363.53;5044657;28;20050;-73
2022/10/31 01:03:08;;;;;;;10.70;2.63;;;;;;;15.13;74.08;101356.56;5044187;28;20054;-74
2022/10/31 01:05:36;;;;;;;6.35;1.92;;;;;;;15.09;75.17;101357.34;5036240;28;20040;-74
2022/10/31 01:08:05;;;;;;;6.90;2.10;;;;;;;15.05;75.19;101355.53;5037559;28;20041;-73
2022/10/31 01:10:33;;;;;;;4.10;2.10;;;;;;;15.04;76.43;101354.63;5034742;28;20114;-73
2022/10/31 01:13:04;;;;;;;6.13;2.80;;;;;;;15.03;76.66;101357.22;5033334;28;20057;-73
2022/10/31 01:15:32;;;;;;;10.20;2.63;;;;;;;15.00;77.06;101345.03;5039335;28;20049;-76
2022/10/31 01:18:01;;;;;;;8.15;2.85;;;;;;;14.97;77.55;101349.28;5038280;28;20408;-73
2022/10/31 01:20:29;;;;;;;9.20;2.50;;;;;;;14.94;77.21;101351.81;5043901;28;20049;-73
2022/10/31 01:22:58;;;;;;;6.60;2.53;;;;;;;14.87;78.92;101343.00;5042209;28;20123;-73
2022/10/31 01:25:27;;;;;;;7.53;2.42;;;;;;;14.80;80.03;101341.97;5033589;28;20048;-73
2022/10/31 01:27:55;;;;;;;5.43;2.42;;;;;;;14.77;80.97;101343.63;5036132;28;20060;-73
2022/10/31 01:30:26;;;;;;;6.53;2.00;;;;;;;14.74;80.17;101335.75;5048137;28;20589;-73
2022/10/31 01:32:54;;;;;;;8.70;2.58;;;;;;;14.70;80.89;101336.53;5034161;28;20521;-74
2022/10/31 01:35:30;;;;;;;4.13;1.95;;;;;;;14.66;81.59;101336.47;5042603;28;20067;-73
2022/10/31 01:37:59;;;;;;;5.38;2.67;;;;;;;14.68;81.21;101338.22;5018381;28;20038;-75
2022/10/31 01:40:31;;;;;;;3.03;2.08;;;;;;;14.65;81.92;101334.69;5030464;28;20404;-73
2022/10/31 01:43:00;;;;;;;3.58;2.10;;;;;;;14.64;82.34;101332.09;5017472;28;20056;-73
2022/10/31 01:45:30;;;;;;;2.75;1.90;;;;;;;14.67;87.59;101332.13;5020900;28;20051;-73
2022/10/31 01:47:59;;;;;;;5.65;2.22;;;;;;;14.67;88.88;101332.13;5026228;28;20057;-76
2022/10/31 01:50:34;;;;;;;5.07;2.25;;;;;;;14.67;87.80;101316.50;5023856;28;20052;-73
2022/10/31 01:53:05;;;;;;;4.50;2.20;;;;;;;14.64;86.04;101312.13;5017171;28;20049;-73
2022/10/31 01:55:37;;;;;;;5.63;2.40;;;;;;;14.61;86.30;101304.25;5026770;28;20041;-75
2022/10/31 01:58:11;;;;;;;5.05;2.10;;;;;;;14.57;86.53;101304.16;5014988;28;20061;-74
2022/10/31 02:00:44;;;;;;;6.68;2.20;;;;;;;14.55;86.49;101306.72;5012256;28;20061;-73
2022/10/31 02:03:15;;;;;;;4.50;2.25;;;;;;;14.59;86.97;101312.84;5012035;28;20060;-74
2022/10/31 02:05:45;;;;;;;5.38;2.13;;;;;;;14.61;87.00;101309.47;5014641;28;20050;-74
2022/10/31 02:08:19;;;;;;;5.70;2.17;;;;;;;14.64;88.79;101316.44;5019054;28;20080;-73
2022/10/31 02:10:49;;;;;;;6.25;2.95;;;;;;;14.65;86.42;101323.41;5011735;28;20054;-73
2022/10/31 02:13:18;;;;;;;6.20;3.17;;;;;;;14.66;85.60;101317.38;5015836;28;20693;-73
2022/10/31 02:15:53;;;;;;;5.05;2.03;;;;;;;14.66;86.80;101309.56;5018234;28;20458;-74
2022/10/31 02:18:22;;;;;;;7.70;2.58;;;;;;;14.63;90.21;101299.03;5018506;28;20068;-74
2022/10/31 02:20:59;;;;;;;4.40;1.98;;;;;;;14.57;89.89;101301.53;5016424;28;20049;-75
2022/10/31 02:24:00;;;;;;;4.32;2.28;;;;;;;14.51;90.50;101289.22;5013756;28;20415;-73
2022/10/31 02:26:59;;;;;;;5.45;3.10;;;;;;;14.43;89.15;101291.66;4996706;28;20049;-76
2022/10/31 02:29:58;;;;;;;7.70;2.90;;;;;;;14.40;88.46;101304.59;5016825;28;20045;-76
2022/10/31 02:32:34;;;;;;;5.10;2.55;;;;;;;14.44;89.32;101302.94;5012299;28;20483;-75
2022/10/31 02:35:11;;;;;;;6.40;2.65;;;;;;;14.46;88.72;101291.72;5017465;28;20152;-75
2022/10/31 02:37:48;;;;;;;4.55;2.35;;;;;;;14.46;90.64;101283.91;5038190;28;20553;-75
2022/10/31 02:40:22;;;;;;;5.50;2.83;;;;;;;14.45;89.89;101282.16;5036371;28;20055;-75
2022/10/31 02:42:59;;;;;;;7.43;3.25;;;;;;;14.42;89.63;101289.00;5037944;28;20606;-75
2022/10/31 02:45:33;;;;;;;4.35;3.05;;;;;;;14.39;89.70;101270.72;5029864;28;20108;-74
2022/10/31 02:48:14;;;;;;;6.47;2.92;;;;;;;14.36;89.73;101274.16;5033146;28;20049;-75
2022/10/31 02:50:47;;;;;;;7.25;3.53;;;;;;;14.36;90.12;101262.84;5029505;28;20041;-74
2022/10/31 02:53:17;;;;;;;4.90;2.83;;;;;;;14.35;90.66;101251.53;5039970;28;20692;-74
2022/10/31 02:56:01;;;;;;;4.30;2.53;;;;;;;14.35;93.34;101240.25;5032941;28;20063;-74
2022/10/31 02:58:33;;;;;;;8.23;2.65;;;;;;;14.33;94.94;101240.22;5040047;28;20121;-74
2022/10/31 03:01:28;;;;;;;7.75;2.72;;;;;;;14.30;93.31;101234.09;5042190;28;20045;-75
2022/10/31 03:04:13;;;;;;;6.47;3.13;;;;;;;14.31;92.19;101236.69;5030267;28;20402;-74
2022/10/31 03:06:47;;;;;;;5.13;2.63;;;;;;;14.32;91.01;101241.09;5030692;28;20053;-74
2022/10/31 03:09:22;;;;;;;7.50;3.65;;;;;;;14.36;90.57;101255.03;5030933;28;20557;-74
2022/10/31 03:11:59;;;;;;;8.65;3.70;;;;;;;14.37;90.05;101244.66;5041708;28;20053;-75
2022/10/31 03:14:37;;;;;;;10.60;3.67;;;;;;;14.33;89.95;101241.94;5043397;28;20043;-74
2022/10/31 03:17:10;;;;;;;6.30;3.25;;;;;;;14.31;90.29;101252.31;5032531;28;20045;-74
2022/10/31 03:19:44;;;;;;;6.07;2.72;;;;;;;14.34;90.56;101254.09;5036704;28;20045;-74
2022/10/31 03:22:19;;;;;;;6.85;3.13;;;;;;;14.36;90.62;101253.31;5036422;28;20071;-75
2022/10/31 03:24:50;;;;;;;5.43;2.55;;;;;;;14.38;90.20;101238.59;5040766;28;20048;-75
2022/10/31 03:27:23;;;;;;;4.28;2.00;;;;;;;14.35;93.30;101227.25;5032764;28;20095;-75
2022/10/31 03:29:55;;;;;;;6.68;2.40;;;;;;;14.30;93.38;101234.97;5037470;28;20372;-74
2022/10/31 03:32:25;;;;;;;;;;;;;;;14.29;92.30;101229.72;5039788;28;20048;-74
2022/10/31 03:34:59;;;;;;;7.28;2.47;;;;;;;14.29;90.78;101222.78;5033280;28;20408;-73
2022/10/31 03:37:31;;;;;;;4.82;2.45;;;;;;;14.29;90.74;101233.19;5043428;28;20061;-75
2022/10/31 03:40:02;;;;;;;7.53;2.38;;;;;;;14.28;90.38;101234.03;5040007;28;20049;-74
2022/10/31 03:42:35;;;;;;;7.78;2.90;;;;;;;14.27;90.47;101219.28;5043485;28;20596;-74
2022/10/31 03:45:06;;;;;;;8.32;2.15;;;;;;;14.25;89.78;101213.16;5034919;28;20057;-75
2022/10/31 03:47:37;;;;;;;4.63;2.20;;;;;;;14.25;90.10;101215.78;5035726;28;20056;-74
2022/10/31 03:50:10;;;;;;;3.53;2.35;;;;;;;14.24;89.68;101216.59;5027298;28;20050;-75
2022/10/31 03:52:43;;;;;;;3.67;2.20;;;;;;;14.19;88.85;101211.28;5033882;28;20096;-75
2022/10/31 03:55:18;;;;;;;4.60;2.15;;;;;;;14.17;88.35;101214.69;5035804;28;20060;-75
2022/10/31 03:57:55;;;;;;;6.45;2.15;;;;;;;14.17;88.31;101227.72;5036483;28;20048;-75
2022/10/31 04:00:24;;;;;;;5.10;2.05;;;;;;;14.18;88.25;101229.50;5029162;28;20068;-75
2022/10/31 04:02:59;;;;;;;12.15;2.13;;;;;;;14.15;87.76;101226.81;5033462;28;20049;-75
2022/10/31 04:05:32;;;;;;;6.95;2.00;;;;;;;14.12;87.93;101218.94;5029200;28;20115;-75
2022/10/31 04:08:03;;;;;;;5.35;2.05;;;;;;;14.10;87.63;101202.41;5036708;28;20065;-74
2022/10/31 04:10:33;;;;;;;2.78;1.75;;;;;;;14.11;87.41;101211.97;5033722;28;20061;-75
2022/10/31 04:13:08;;;;;;;5.50;2.63;;;;;;;14.11;88.59;101214.56;5044670;28;20045;-76
2022/10/31 04:15:38;;;;;;;4.20;1.92;;;;;;;14.15;89.19;101219.88;5031983;28;20091;-75
2022/10/31 04:18:07;;;;;;;3.28;1.67;;;;;;;14.17;89.68;101214.69;5038954;28;20138;-75
2022/10/31 04:20:39;;;;;;;3.20;1.70;;;;;;;14.19;88.46;101205.22;5035079;28;20053;-75
2022/10/31 04:23:16;;;;;;;6.20;1.85;;;;;;;14.19;87.64;101202.59;5036737;28;20542;-75
2022/10/31 04:25:44;;;;;;;5.07;2.05;;;;;;;14.18;87.72;101195.66;5042406;28;20391;-74
2022/10/31 04:28:12;;;;;;;4.63;2.00;;;;;;;14.21;87.33;101206.13;5037939;28;20502;-75
2022/10/31 04:30:44;;;;;;;3.28;1.70;;;;;;;14.22;87.40;101202.66;5040940;28;20615;-74
2022/10/31 04:33:13;;;;;;;7.65;2.10;;;;;;;14.26;87.01;101196.69;5039887;28;20061;-77
2022/10/31 04:35:43;;;;;;;3.33;1.88;;;;;;;14.28;86.67;101197.59;5032671;28;20050;-74
2022/10/31 04:38:11;;;;;;;7.10;1.85;;;;;;;14.29;87.35;101188.94;5045442;28;20134;-74
2022/10/31 04:40:40;;;;;;;3.70;1.83;;;;;;;14.28;85.83;101192.41;5032682;28;20847;-75
2022/10/31 04:43:08;;;;;;;3.38;1.55;;;;;;;14.27;85.30;101190.66;5039851;28;20048;-75
2022/10/31 04:45:37;;;;;;;3.25;2.03;;;;;;;14.23;84.50;101191.44;5043324;28;20049;-74
2022/10/31 04:48:06;;;;;;;4.00;1.75;;;;;;;14.21;84.12;101180.09;5035680;28;20134;-74
2022/10/31 04:50:34;;;;;;;7.03;1.88;;;;;;;14.22;84.41;101168.81;5039273;28;20491;-73
2022/10/31 04:53:04;;;;;;;3.80;1.45;;;;;;;14.22;84.19;101161.94;5043636;28;20053;-73
2022/10/31 04:55:35;;;;;;;2.10;1.30;;;;;;;14.23;84.21;101168.00;5042906;28;20079;-73
2022/10/31 04:58:03;;;;;;;5.32;1.63;;;;;;;14.25;84.45;101176.72;5040707;28;20124;-73
2022/10/31 05:00:32;;;;;;;6.30;1.88;;;;;;;14.26;84.21;101178.47;5040823;28;20115;-73
2022/10/31 05:03:00;;;;;;;3.95;1.27;;;;;;;14.29;84.60;101183.72;5045618;28;20522;-73
2022/10/31 05:05:31;;;;;;;4.07;1.65;;;;;;;14.31;84.09;101187.25;5045414;28;20866;-73
2022/10/31 05:08:03;;;;;;;2.20;1.38;;;;;;;14.31;83.83;101182.03;5044201;28;20111;-74
2022/10/31 05:10:34;;;;;;;3.35;1.35;;;;;;;14.28;83.46;101176.78;5043490;28;20059;-74
2022/10/31 05:13:04;;;;;;;5.32;1.42;;;;;;;14.27;84.17;101175.03;5045920;28;20084;-74
2022/10/31 05:15:33;;;;;;;9.25;1.65;;;;;;;14.26;84.41;101175.88;5044768;28;20514;-73
2022/10/31 05:18:02;;;;;;;6.35;1.83;;;;;;;14.28;84.30;101178.50;5036968;28;20053;-74
2022/10/31 05:20:32;;;;;;;3.47;1.40;;;;;;;14.28;84.68;101168.97;5047013;28;20053;-73
2022/10/31 05:23:01;;;;;;;3.95;1.85;;;;;;;14.23;83.87;101158.47;5048102;28;20072;-74
2022/10/31 05:25:30;;;;;;;5.93;1.65;;;;;;;14.21;84.03;101154.94;5033494;28;20049;-74
2022/10/31 05:28:00;;;;;;;4.28;1.50;;;;;;;14.21;84.58;101167.97;5037702;28;20544;-75
2022/10/31 05:30:30;;;;;;;6.63;2.00;;;;;;;14.23;84.52;101162.78;5034356;28;20537;-74
2022/10/31 05:33:00;;;;;;;4.43;1.33;;;;;;;14.24;84.15;101156.72;5038617;28;20163;-74
2022/10/31 05:35:30;;;;;;;4.53;1.50;;;;;;;14.27;84.75;101162.03;5036219;28;20053;-75
2022/10/31 05:37:59;;;;;;;4.25;1.58;;;;;;;14.29;84.65;101162.91;5037256;28;20057;-75
2022/10/31 05:40:29;;;;;;;5.28;1.88;;;;;;;14.31;83.70;101155.13;5031236;28;20049;-75
2022/10/31 05:43:00;;;;;;;2.50;1.30;;;;;;;14.29;83.94;101157.69;5036927;28;20050;-75
2022/10/31 05:45:29;;;;;;;5.88;2.03;;;;;;;14.28;84.56;101155.94;5037374;28;20047;-75
2022/10/31 05:47:59;;;;;;;5.35;1.48;;;;;;;14.24;84.73;101148.91;5038565;28;20601;-76
2022/10/31 05:50:29;;;;;;;4.82;1.75;;;;;;;14.22;84.40;101151.50;5037204;28;20313;-75
2022/10/31 05:52:59;;;;;;;3.92;1.38;;;;;;;14.24;84.45;101154.13;5038575;28;20045;-76
2022/10/31 05:55:28;;;;;;;5.32;1.30;;;;;;;14.24;84.88;101159.34;5038368;28;20049;-75
2022/10/31 05:57:57;;;;;;;3.10;1.33;;;;;;;14.24;84.29;101159.34;5035420;28;20045;-75
2022/10/31 06:00:28;;;;;;;3.42;1.48;;;;;;;14.25;84.79;101163.72;5033593;28;20451;-75
2022/10/31 06:03:07;;;;;;;2.88;1.42;;;;;;;14.26;85.04;101160.25;5033939;28;20048;-75
2022/10/31 06:05:36;;;;;;;9.77;1.77;;;;;;;14.27;85.05;101155.91;5042614;28;20380;-75
2022/10/31 06:08:05;;;;;;;2.38;1.42;;;;;;;14.22;84.94;101150.63;5034213;28;20063;-76
2022/10/31 06:10:33;;;;;;;7.55;1.67;;;;;;;14.19;85.22;101143.63;5042878;28;20498;-75
2022/10/31 06:13:02;;;;;;;3.25;1.63;;;;;;;14.20;85.49;101147.09;5038212;28;20049;-75
2022/10/31 06:15:32;;;;;;;3.35;1.65;;;;;;;14.22;85.38;101155.81;5040378;28;20038;-75
2022/10/31 06:18:02;;;;;;;4.93;2.33;;;;;;;14.23;84.93;101136.78;5044558;28;20098;-75
2022/10/31 06:20:30;;;;;;;4.20;1.52;;;;;;;14.23;85.80;101131.56;5040709;28;20057;-75
2022/10/31 06:22:59;;;;;;;4.07;1.00;;;;;;;14.26;89.87;101131.63;5042425;28;20049;-75
2022/10/31 06:25:28;;;;;;;3.35;1.50;;;;;;;14.25;90.01;101125.53;5046295;28;20048;-76
2022/10/31 06:27:56;;;;;;;2.45;1.58;;;;;;;14.25;89.52;101115.13;5034174;28;20056;-75
2022/10/31 06:30:25;;;;;;;5.47;1.52;;;;;;;14.25;88.83;101116.84;5036153;28;20152;-76
2022/10/31 06:32:55;;;;;;;5.40;2.03;;;;;;;14.24;89.84;101115.09;5039961;28;20064;-75
2022/10/31 06:35:24;;;;;;;9.55;2.08;;;;;;;14.23;89.00;101111.63;5032223;28;20625;-76
2022/10/31 06:37:56;;;;;;;5.45;1.52;;;;;;;14.24;88.87;101115.09;5030507;28;20049;-75
2022/10/31 06:40:24;;;;;;;6.78;1.48;;;;;;;14.20;89.56;101105.44;5033657;28;20064;-76
2022/10/31 06:43:03;;;;;;;5.13;1.60;;;;;;;14.18;89.68;101107.19;5031367;28;20418;-76
2022/10/31 06:45:31;;;;;;;6.00;1.60;;;;;;;14.18;89.27;101118.47;5033734;28;20053;-75
2022/10/31 06:48:02;;;;;;;7.47;1.50;;;;;;;14.15;89.16;101109.69;5034518;28;20052;-76
2022/10/31 06:50:30;;;;;;;5.63;1.58;;;;;;;14.10;90.91;101108.72;5032557;28;20049;-76
2022/10/31 06:53:02;;;;;;;4.05;2.00;;;;;;;14.06;89.57;101106.91;5032140;28;20041;-75
2022/10/31 06:55:30;;;;;;;5.05;1.38;;;;;;;14.04;89.00;101105.16;5039666;28;20049;-75
2022/10/31 06:58:00;;;;;;;7.07;1.83;;;;;;;14.07;88.06;101090.47;5042018;28;20091;-76
2022/10/31 07:00:31;;;;;;;5.47;1.60;;;;;;;14.06;88.70;101073.06;5036105;28;20525;-75
2022/10/31 07:03:02;;;;;;;6.95;1.70;;;;;;;14.05;86.95;101064.41;5031533;28;20068;-76
2022/10/31 07:05:32;;;;;;;3.45;1.45;;;;;;;14.04;86.13;101068.72;5041771;28;20538;-76
2022/10/31 07:08:01;;;;;;;5.25;1.55;;;;;;;14.08;85.63;101074.00;5041202;28;20045;-76
2022/10/31 07:10:32;;;;;;;4.95;1.45;;;;;;;14.07;85.24;101067.03;5030137;28;20049;-73
2022/10/31 07:13:01;;;;;;;3.83;1.35;;;;;;;14.06;84.80;101062.66;5036228;28;20411;-74
2022/10/31 07:15:31;;;;;;;2.10;1.42;;;;;;;14.06;85.65;101060.06;5037350;28;20051;-75
2022/10/31 07:18:04;;;;;;;2.08;1.15;;;;;;;14.06;84.66;101055.72;5045362;28;20052;-74
2022/10/31 07:20:33;;;;;;;6.00;1.83;;;;;;;14.06;84.75;101060.06;5043026;28;20118;-74
2022/10/31 07:23:02;;;;;;;6.55;1.65;;;;;;;14.07;85.03;101062.72;5035958;28;20049;-74
2022/10/31 07:25:33;;;;;;;4.97;1.92;;;;;;;14.07;85.00;101061.84;5032698;28;20924;-73
2022/10/31 07:28:01;;;;;;;3.80;1.20;;;;;;;14.04;84.52;101060.94;5032813;28;20507;-77
2022/10/31 07:30:30;;;;;;;3.40;1.30;;;;;;;14.06;84.91;101062.66;5033834;28;20056;-76
2022/10/31 07:32:59;;;;;;;7.20;1.85;;;;;;;14.08;85.57;101066.19;5032061;28;20045;-74
2022/10/31 07:35:30;;;;;;;5.53;1.60;;;;;;;14.08;85.40;101060.97;5035291;28;20063;-73
2022/10/31 07:37:59;;;;;;;4.07;1.17;;;;;;;14.10;84.94;101061.91;5033918;28;20605;-76
2022/10/31 07:40:27;;;;;;;2.58;1.30;;;;;;;14.08;85.16;101048.84;5031481;28;20059;-78
2022/10/31 07:42:56;;;;;;;7.13;1.67;;;;;;;14.09;84.90;101047.09;5041829;28;20049;-77
2022/10/31 07:45:24;;;;;;;1.98;1.65;;;;;;;14.10;85.33;101046.28;5033925;28;20604;-77
2022/10/31 07:47:54;;;;;;;3.90;1.60;;;;;;;14.10;85.81;101049.75;5035147;28;20439;-77
2022/10/31 07:50:24;;;;;;;5.88;1.75;;;;;;;14.11;85.28;101046.31;5037832;28;20053;-74
2022/10/31 07:53:02;;;;;;;3.50;1.85;;;;;;;14.10;85.13;101025.47;5037861;28;20049;-74
2022/10/31 07:55:33;;;;;;;5.30;1.35;;;;;;;14.08;85.70;101032.34;5041638;28;20053;-73
2022/10/31 07:58:03;;;;;;;3.17;1.50;;;;;;;14.09;86.24;101047.09;5037092;28;20052;-74
2022/10/31 08:00:32;;;;;;;3.92;1.27;;;;;;;14.11;85.94;101043.72;5033629;28;20038;-78
2022/10/31 08:03:02;;;;;;;4.30;1.25;;;;;;;14.10;85.96;101036.75;5037953;28;20099;-74
2022/10/31 08:05:30;;;;;;;3.83;1.35;;;;;;;14.08;86.44;101021.94;5035160;28;20049;-75
2022/10/31 08:08:03;;;;;;;3.85;1.70;;;;;;;14.07;86.42;101015.00;5039536;28;20087;-75
2022/10/31 08:10:32;;;;;;;4.15;1.60;;;;;;;14.03;87.37;101007.13;5043303;28;20049;-76
2022/10/31 08:13:02;;;;;;;5.32;2.08;;;;;;;14.04;87.72;101018.41;5044257;28;20049;-76
2022/10/31 08:15:30;;;;;;;3.15;1.45;;;;;;;14.01;87.76;101018.34;5040543;28;20048;-75
2022/10/31 08:17:59;;;;;;;8.82;1.88;;;;;;;14.01;87.67;101011.41;5042193;28;20822;-75
2022/10/31 08:20:32;;;;;;;4.60;2.08;;;;;;;14.02;87.47;101013.19;5045309;28;20621;-75
2022/10/31 08:23:06;;;;;;;3.83;1.65;;;;;;;14.04;86.94;101037.50;5047473;28;20112;-74
2022/10/31 08:25:35;;;;;;;7.88;2.58;;;;;;;14.04;87.27;101024.50;5039927;28;20049;-75
2022/10/31 08:28:09;;;;;;;4.05;2.20;;;;;;;14.03;86.91;101020.13;5039697;28;20103;-75
2022/10/31 08:30:39;;;;;;;5.53;1.42;;;;;;;13.98;87.30;101019.16;5038411;28;20635;-77
2022/10/31 08:33:10;;;;;;;4.40;1.65;;;;;;;13.96;87.11;101010.47;5035001;28;20507;-76
2022/10/31 08:35:39;;;;;;;6.40;1.95;;;;;;;13.96;87.31;101010.47;5033874;28;20061;-74
2022/10/31 08:38:11;;;;;;;4.57;1.38;;;;;;;13.95;87.68;101003.50;5039721;28;20561;-76
2022/10/31 08:40:40;;;;;;;2.72;1.52;;;;;;;13.94;87.82;100993.06;5036039;28;20049;-75
2022/10/31 08:43:12;;;;;;;4.45;1.50;;;;;;;13.91;87.88;100990.41;5038833;28;20057;-74
2022/10/31 08:45:41;;;;;;;6.57;1.80;;;;;;;13.92;87.11;100998.22;5043366;28;20065;-76
2022/10/31 08:48:13;;;;;;;3.33;1.50;;;;;;;13.92;87.38;100980.03;5037239;28;20522;-78
2022/10/31 08:50:42;;;;;;;3.53;1.50;;;;;;;13.92;88.19;100977.41;5039049;28;20055;-75
2022/10/31 08:53:14;;;;;;;3.83;1.55;;;;;;;13.93;87.86;100991.31;5032811;28;20487;-74
2022/10/31 08:55:44;;;;;;;4.05;1.60;;;;;;;13.93;87.99;100976.59;5035574;28;20083;-75
2022/10/31 08:58:16;;;;;;;3.33;1.23;;;;;;;13.93;88.10;100979.19;5033224;28;20049;-75
2022/10/31 09:00:45;;;;;;;4.83;1.43;;;;;;;13.94;87.97;100964.44;5040393;28;20049;-78
2022/10/31 09:03:16;;;;;;;5.97;1.42;;;;;;;13.90;87.94;100953.09;5046787;28;20698;-74
2022/10/31 09:05:45;;;;;;;2.58;1.60;;;;;;;13.88;88.34;100949.63;5040549;28;20065;-74
2022/10/31 09:08:18;;;;;;;5.63;2.13;;;;;;;13.90;88.24;100960.03;5045848;28;20106;-76
2022/10/31 09:10:57;;;;;;;6.75;2.15;;;;;;;13.90;87.71;100954.81;5045628;28;20055;-76
2022/10/31 09:13:26;;;;;;;2.88;2.13;;;;;;;13.92;88.28;100958.34;5036413;28;20065;-75
2022/10/31 09:15:55;;;;;;;2.95;1.88;;;;;;;13.92;88.10;100946.19;5038081;28;20450;-74
2022/10/31 09:18:25;;;;;;;7.72;1.85;;;;;;;13.94;88.03;100952.31;5033559;28;20053;-75
2022/10/31 09:20:53;;;;;;;3.25;1.52;;;;;;;13.95;87.51;100954.09;5032760;28;20060;-77
2022/10/31 09:23:24;;;;;;;6.05;2.00;;;;;;;13.96;87.79;100945.41;5038469;28;20061;-75
2022/10/31 09:25:54;;;;;;;4.00;1.67;;;;;;;13.97;88.11;100942.00;5032469;28;20195;-75
2022/10/31 09:28:24;;;;;;;3.72;1.88;;;;;;;13.97;87.49;100931.56;5035065;28;20046;-76
2022/10/31 09:30:54;;;;;;;3.53;1.75;;;;;;;13.98;87.74;100929.84;5036424;28;20739;-78
2022/10/31 09:33:23;;;;;;;5.43;1.80;;;;;;;13.95;87.20;100920.25;5033852;28;20110;-76
2022/10/31 09:35:52;;;;;;;8.05;2.30;;;;;;;13.91;87.58;100918.44;5035707;28;20049;-76
2022/10/31 09:38:25;;;;;;;2.95;1.58;;;;;;;13.91;87.15;100920.19;5036760;28;20061;-76
2022/10/31 09:40:59;;;;;;;3.78;1.95;;;;;;;13.88;87.72;100910.59;5042479;28;20049;-76
2022/10/31 09:43:35;;;;;;;3.88;1.63;;;;;;;13.86;87.87;100917.50;5035721;28;20487;-77
2022/10/31 09:46:10;;;;;;;3.85;2.10;;;;;;;13.83;87.58;100917.41;5034277;28;20068;-76
2022/10/31 09:48:49;;;;;;;4.85;1.77;;;;;;;13.83;87.26;100917.41;5033418;28;20127;-75
2022/10/31 09:51:21;;;;;;;7.55;1.80;;;;;;;13.83;87.48;100927.81;5033678;28;20491;-76
2022/10/31 09:53:53;;;;;;;;;;;;;;;13.85;87.33;100928.72;5036454;28;20049;-78
2022/10/31 09:56:24;;;;;;;3.95;1.80;;;;;;;13.86;87.22;100927.91;5036305;28;19979;-76
2022/10/31 09:58:57;;;;;;;2.38;1.20;;;;;;;13.85;86.63;100938.25;5039825;28;20049;-76
2022/10/31 10:01:35;;;;;;;4.40;1.45;;;;;;;13.85;87.74;100933.06;5037832;28;20503;-77
2022/10/31 10:04:16;;;;;;;4.57;1.83;;;;;;;13.87;87.29;100926.16;5036205;28;20597;-76
2022/10/31 10:06:49;;;;;;;6.38;1.70;;;;;;;13.88;87.08;100928.81;5037670;28;20091;-76
2022/10/31 10:09:21;;;;;;;6.30;1.83;;;;;;;13.90;86.76;100915.81;5038179;28;20045;-75
2022/10/31 10:12:01;;;;;;;4.93;1.47;;;;;;;13.88;86.30;100913.19;5033784;28;20612;-76
2022/10/31 10:14:49;;;;;;;4.18;1.48;;;;;;;13.89;85.55;100911.47;5033903;28;20301;-78
2022/10/31 10:17:32;;;;;;;4.50;1.33;;;;;;;13.91;86.18;100904.56;5033928;28;20080;-76
2022/10/31 10:20:39;;;;;;;2.33;1.20;;;;;;;13.89;85.48;100906.28;5029540;28;20057;-77
2022/10/31 10:23:35;;;;;;;4.38;1.77;;;;;;;13.90;86.28;100902.81;5037899;28;20052;-77
2022/10/31 10:26:15;;;;;;;3.60;1.63;;;;;;;13.90;85.24;100902.81;5039205;28;20107;-75
2022/10/31 10:28:47;;;;;;;2.95;1.20;;;;;;;13.85;85.36;100889.72;5037723;28;20137;-76
2022/10/31 10:31:18;;;;;;;5.63;1.80;;;;;;;13.82;85.56;100887.06;5037129;28;20071;-75
2022/10/31 10:33:56;;;;;;;2.40;1.60;;;;;;;13.81;86.08;100885.31;5039706;28;20579;-77
2022/10/31 10:36:34;;;;;;;8.85;2.08;;;;;;;13.73;85.25;100879.09;5034905;28;20044;-77
2022/10/31 10:39:06;;;;;;;5.78;1.95;;;;;;;13.72;86.49;100869.53;5011156;28;20061;-76
2022/10/31 10:41:43;;;;;;;4.87;2.33;;;;;;;13.72;85.50;100873.03;5013644;28;20045;-76
2022/10/31 10:44:12;;;;;;;6.53;1.80;;;;;;;13.63;85.17;100862.47;5014966;28;20286;-75
2022/10/31 10:49:37;;;;;;;6.75;2.13;;;;;;;13.60;86.06;100855.44;5019370;28;20065;-75
2022/10/31 10:52:15;;;;;;;7.80;1.80;;;;;;;13.58;85.94;100857.16;5015554;28;20572;-77
2022/10/31 10:55:03;;;;;;;3.08;1.40;;;;;;;13.59;86.50;100860.63;5015035;28;20075;-79
2022/10/31 10:57:54;;;;;;;6.22;1.65;;;;;;;13.58;86.37;100862.38;5014010;28;20046;-76
2022/10/31 11:00:24;;;;;;;4.47;1.30;;;;;;;13.58;86.02;100857.16;5017587;28;20037;-76
2022/10/31 11:02:53;;;;;;;3.97;1.90;;;;;;;13.57;85.34;100857.13;5015528;28;20064;-77
2022/10/31 11:05:30;;;;;;;2.90;1.13;;;;;;;13.59;85.49;100855.44;5011442;28;20057;-75
2022/10/31 11:07:58;;;;;;;2.78;1.75;;;;;;;13.59;85.29;100848.50;5014145;28;20096;-76
2022/10/31 11:10:29;;;;;;;4.50;1.40;;;;;;;13.57;85.41;100845.00;5015792;28;20058;-77
2022/10/31 11:13:07;;;;;;;1.70;1.13;;;;;;;13.56;85.79;100844.97;5014051;28;20073;-75
2022/10/31 11:15:41;;;;;;;2.03;1.13;;;;;;;13.56;85.15;100835.47;5014653;28;20176;-75
2022/10/31 11:18:24;;;;;;;5.15;1.63;;;;;;;13.57;85.50;100825.94;5012061;28;20622;-76
2022/10/31 11:20:53;;;;;;;;;;;;;;;13.58;85.56;100823.38;5015008;28;20049;-75
2022/10/31 11:23:23;;;;;;;1.35;1.00;;;;;;;13.61;85.44;100819.94;5014765;28;19931;-75
2022/10/31 11:25:57;;;;;;;2.63;1.42;;;;;;;13.61;85.52;100820.81;5014594;28;20064;-76
2022/10/31 11:28:29;;;;;;;3.75;0.90;;;;;;;13.64;85.58;100821.72;5019144;28;20048;-76
2022/10/31 11:30:59;;;;;;;4.65;1.27;;;;;;;13.64;85.55;100821.72;5012333;28;20053;-75
2022/10/31 11:33:32;;;;;;;4.22;1.30;;;;;;;13.62;84.75;100825.16;5014921;28;20068;-75
2022/10/31 11:36:02;;;;;;;1.88;1.15;;;;;;;13.62;85.67;100814.75;5012855;28;21036;-76
2022/10/31 11:38:41;;;;;;;3.55;1.38;;;;;;;13.62;85.39;100819.97;5029631;28;20491;-78
2022/10/31 11:41:14;;;;;;;4.32;1.25;;;;;;;13.63;85.82;100815.66;5033986;28;20049;-77
2022/10/31 11:43:50;;;;;;;5.03;1.75;;;;;;;13.62;85.99;100804.34;5030451;28;21221;-75
2022/10/31 11:46:25;;;;;;;3.67;1.30;;;;;;;13.63;86.70;100805.25;5032430;28;20069;-75
2022/10/31 11:48:57;;;;;;;3.55;0.93;;;;;;;13.62;86.56;100793.09;5034468;28;20068;-75
2022/10/31 11:51:29;;;;;;;2.95;1.27;;;;;;;13.61;86.47;100787.03;5033602;28;20061;-75